메인 페이지
METAR-TAF:

METAR-TAF

공항 :

룩셈부르크 핀델 국제공항

룩셈부르크, 룩셈부르크

위도: 49-37N, 경도: 006-13E, 고도: 376m

현재 날씨관측

예보는 31분 전, 04:20시(UTC)에 발표되었습니다.
북동5kt북북동풍과 풍을 오가는
온도 8°C
습도 76%
기압 1027 hPa
시정 10km 이상
1500m 미만 상공 구름 및 적란운 없음

METAR: ELLX 220420Z 05005KT 020V080 CAVOK 08/04 Q1027 NOSIG

시각: 06:51 (04:51 UTC)

예보

예보는 5 시간 51분 전, 23:00시(UTC)에 발표되었습니다.
예보 대상 시간: 22일 00시부터 23일 06시까지 (UTC)
북동8kt
시정 10km 이상
1500m 미만 상공 구름 및 적란운 없음
확률 30%
22일 02시부터 22일 08시까지 (UTC)
시정: 4000m
박무
전환 중
22일 11시부터 22일 13시까지 (UTC)
고도 1400ft 상공 구름 많음
일시적
22일 13시부터 22일 16시까지 (UTC)
시정: 2000m
고도 500ft 상공 구름 많음
이슬비, 비
전환 중
22일 17시부터 22일 19시까지 (UTC)
고도 2000ft 상공 구름 보통
일시적
22일 22시부터 23일 06시까지 (UTC)
시정: 2000m
박무

TAF: ELLX 212300Z 2200/2306 04008KT CAVOK PROB30 2202/2208 4000 BR BECMG 2211/2213 BKN014 TEMPO 2213/2216 2000 DZRA BKN005 BECMG 2217/2219 SCT020 TEMPO 2222/2306 2000 BR

4,000개 이상의 공항 관측 자료 및 예보 (METAR 및 TAF 보고).

지도상에서 검색 가능한 기상관측소가 노란 점과 빨간 점으로 표시되어 있습니다.

기상관측소 명을 보려면 표시 위로 마우스를 이동하세요.

날씨 관측과 예보를 보려면 클릭하세요.

지도 변경 : 확대하려면 엑스 표시가 있는 녹색 버튼, 축소하려면 빼기 표시가 있는 녹색 버튼, 다음 페이지의 지도를 보려면 녹색 화살표를 클릭하세요.


METAR-TAF: